createdAt,value
2022-08-26T00:00:51.867Z,9.719146
2022-08-26T00:01:51.902Z,9.719110
2022-08-26T00:02:51.877Z,9.719175
2022-08-26T00:03:51.896Z,9.719194
2022-08-26T00:04:51.833Z,9.719074
2022-08-26T00:05:51.839Z,9.719160
2022-08-26T00:06:51.811Z,9.719142
2022-08-26T00:07:51.816Z,9.719098
2022-08-26T00:08:51.782Z,9.719151
2022-08-26T00:09:54.466Z,9.719195
2022-08-26T00:10:51.770Z,9.719209
2022-08-26T00:11:51.756Z,9.719134
2022-08-26T00:12:51.777Z,9.719237
2022-08-26T00:13:51.762Z,9.719173
2022-08-26T00:14:51.721Z,9.719213
2022-08-26T00:15:51.721Z,9.719201
2022-08-26T00:16:51.764Z,9.719253
2022-08-26T00:17:51.693Z,9.719273
2022-08-26T00:18:51.719Z,9.719245
2022-08-26T00:19:51.672Z,9.719197
2022-08-26T00:20:51.667Z,9.719240
2022-08-26T00:21:51.665Z,9.719299
2022-08-26T00:22:51.652Z,9.719358
2022-08-26T00:23:51.634Z,9.719254
2022-08-26T00:24:51.650Z,9.719224
2022-08-26T00:25:51.607Z,9.719325
2022-08-26T00:26:51.798Z,9.719497
2022-08-26T00:27:51.609Z,9.719412
2022-08-26T00:28:51.586Z,9.719294
2022-08-26T00:29:51.595Z,9.719335
2022-08-26T00:30:51.766Z,9.719173
2022-08-26T00:31:51.630Z,9.719386
2022-08-26T00:32:51.562Z,9.719298
2022-08-26T00:33:51.531Z,9.719345
2022-08-26T00:34:51.541Z,9.719195
2022-08-26T00:35:51.682Z,9.719101
2022-08-26T00:36:51.805Z,9.719229
2022-08-26T00:37:51.503Z,9.719335
2022-08-26T00:38:51.490Z,9.719408
2022-08-26T00:39:51.512Z,9.719344
2022-08-26T00:40:51.496Z,9.719316
2022-08-26T00:41:51.476Z,9.719220
2022-08-26T00:42:51.471Z,9.719135
2022-08-26T00:43:51.437Z,9.719041
2022-08-26T00:44:51.429Z,9.719182
2022-08-26T00:45:52.472Z,9.719244
2022-08-26T00:46:51.408Z,9.719347
2022-08-26T00:47:51.432Z,9.719331
2022-08-26T00:48:51.393Z,9.719232
2022-08-26T00:49:51.386Z,9.719276
2022-08-26T00:50:51.372Z,9.719323
2022-08-26T00:51:51.365Z,9.719406
2022-08-26T00:52:51.351Z,9.719349
2022-08-26T00:53:51.367Z,9.719149
2022-08-26T00:54:51.330Z,9.719148
2022-08-26T00:55:51.317Z,9.719315
2022-08-26T00:56:51.313Z,9.719438
2022-08-26T00:57:51.300Z,9.719251
2022-08-26T00:58:51.311Z,9.719222
2022-08-26T00:59:51.296Z,9.719279
2022-08-26T01:00:51.305Z,9.719290
2022-08-26T01:01:51.359Z,9.719260
2022-08-26T01:02:51.262Z,9.719251
2022-08-26T01:03:51.238Z,9.719416
2022-08-26T01:04:56.026Z,9.719328
2022-08-26T01:05:52.227Z,9.719322
2022-08-26T01:06:51.234Z,9.719260
2022-08-26T01:07:51.237Z,9.719273
2022-08-26T01:09:05.490Z,9.719167
2022-08-26T01:09:51.183Z,9.719231
2022-08-26T01:10:51.176Z,9.719275
2022-08-26T01:11:51.172Z,9.719398
2022-08-26T01:12:51.170Z,9.719339
2022-08-26T01:13:51.160Z,9.719116
2022-08-26T01:14:51.147Z,9.719153
2022-08-26T01:15:51.137Z,9.719239
2022-08-26T01:16:51.194Z,9.719150
2022-08-26T01:17:51.120Z,9.719233
2022-08-26T01:18:51.114Z,9.719308
2022-08-26T01:19:51.118Z,9.719273
2022-08-26T01:20:51.085Z,9.719254
2022-08-26T01:21:51.080Z,9.719295
2022-08-26T01:22:52.280Z,9.719395
2022-08-26T01:23:51.064Z,9.719295
2022-08-26T01:24:51.070Z,9.719302
2022-08-26T01:25:51.042Z,9.719205
2022-08-26T01:26:51.030Z,9.719232
2022-08-26T01:27:51.032Z,9.719246
2022-08-26T01:28:51.711Z,9.719201
2022-08-26T01:29:51.018Z,9.719147
2022-08-26T01:30:51.986Z,9.719249
2022-08-26T01:31:51.050Z,9.719364
2022-08-26T01:32:50.976Z,9.719213
2022-08-26T01:33:50.956Z,9.719194
2022-08-26T01:34:50.973Z,9.719166
2022-08-26T01:35:50.935Z,9.719206
2022-08-26T01:36:51.487Z,9.719131
2022-08-26T01:37:51.915Z,9.719100
2022-08-26T01:38:50.902Z,9.719172
2022-08-26T01:39:50.947Z,9.719304
2022-08-26T01:40:50.884Z,9.719164
2022-08-26T01:41:53.578Z,9.719159
2022-08-26T01:42:50.877Z,9.719169
2022-08-26T01:43:50.870Z,9.719300
2022-08-26T01:44:50.858Z,9.719423
2022-08-26T01:45:50.909Z,9.719262
2022-08-26T01:46:50.827Z,9.719270
2022-08-26T01:47:56.634Z,9.719475
2022-08-26T01:48:52.366Z,9.719227
2022-08-26T01:49:50.914Z,9.719094
2022-08-26T01:50:50.805Z,9.719166
2022-08-26T01:51:50.777Z,9.719521
2022-08-26T01:52:53.451Z,9.719206
2022-08-26T01:53:50.749Z,9.718922
2022-08-26T01:54:51.156Z,9.719080
2022-08-26T01:55:50.739Z,9.719036
2022-08-26T01:56:50.727Z,9.718971
2022-08-26T01:57:50.731Z,9.719116
2022-08-26T01:58:50.707Z,9.719343
2022-08-26T01:59:50.698Z,9.719187
2022-08-26T02:00:50.723Z,9.719333
2022-08-26T02:01:50.688Z,9.719493
2022-08-26T02:02:50.675Z,9.719475
2022-08-26T02:03:50.683Z,9.719394
2022-08-26T02:04:50.697Z,9.719312
2022-08-26T02:05:51.263Z,9.719059
2022-08-26T02:06:50.655Z,9.718859
2022-08-26T02:07:50.623Z,9.718896
2022-08-26T02:08:50.632Z,9.719142
2022-08-26T02:09:50.602Z,9.719101
2022-08-26T02:10:50.604Z,9.719121
2022-08-26T02:11:51.052Z,9.719019
2022-08-26T02:12:50.572Z,9.718904
2022-08-26T02:13:50.554Z,9.719071
2022-08-26T02:14:51.210Z,9.719280
2022-08-26T02:15:50.559Z,9.719452
2022-08-26T02:16:50.536Z,9.719424
2022-08-26T02:17:52.687Z,9.719317
2022-08-26T02:18:50.514Z,9.719247
2022-08-26T02:19:50.502Z,9.719160
2022-08-26T02:20:51.687Z,9.719288
2022-08-26T02:21:51.004Z,9.719234
2022-08-26T02:22:50.467Z,9.719145
2022-08-26T02:23:50.469Z,9.719069
2022-08-26T02:24:50.463Z,9.719149
2022-08-26T02:25:50.437Z,9.719127
2022-08-26T02:26:50.444Z,9.719211
2022-08-26T02:27:50.405Z,9.719285
2022-08-26T02:28:50.418Z,9.719109
2022-08-26T02:29:50.395Z,9.719158
2022-08-26T02:30:50.379Z,9.719169
2022-08-26T02:31:50.443Z,9.719238
2022-08-26T02:32:50.366Z,9.719248
2022-08-26T02:33:50.374Z,9.719149
2022-08-26T02:34:50.345Z,9.719145
2022-08-26T02:35:50.338Z,9.719168
2022-08-26T02:36:50.868Z,9.719152
2022-08-26T02:37:50.325Z,9.719140
2022-08-26T02:38:50.290Z,9.719112
2022-08-26T02:39:51.333Z,9.719060
2022-08-26T02:40:50.307Z,9.719149
2022-08-26T02:41:50.297Z,9.719131
2022-08-26T02:42:50.275Z,9.719174
2022-08-26T02:43:50.252Z,9.719180
2022-08-26T02:44:50.362Z,9.719151
2022-08-26T02:45:50.232Z,9.719154
2022-08-26T02:46:50.242Z,9.719181
2022-08-26T02:47:50.231Z,9.719127
2022-08-26T02:48:50.211Z,9.719106
2022-08-26T02:49:50.201Z,9.719160
2022-08-26T02:50:50.197Z,9.719227
2022-08-26T02:51:50.180Z,9.719180
2022-08-26T02:52:50.162Z,9.719162
2022-08-26T02:53:50.172Z,9.719198
2022-08-26T02:54:50.147Z,9.719159
2022-08-26T02:55:50.135Z,9.719136
2022-08-26T02:56:50.121Z,9.719145
2022-08-26T02:57:50.116Z,9.719137
2022-08-26T02:58:50.120Z,9.719191
2022-08-26T02:59:50.122Z,9.719146
2022-08-26T03:00:52.932Z,9.719172
2022-08-26T03:01:50.199Z,9.719197
2022-08-26T03:02:50.093Z,9.719230
2022-08-26T03:03:50.057Z,9.719236
2022-08-26T03:04:57.936Z,9.719237
2022-08-26T03:05:51.063Z,9.719140
2022-08-26T03:06:52.767Z,9.719129
2022-08-26T03:07:50.026Z,9.719185
2022-08-26T03:08:50.011Z,9.719193
2022-08-26T03:09:49.993Z,9.719255
2022-08-26T03:10:50.015Z,9.719211
2022-08-26T03:11:49.970Z,9.719288
2022-08-26T03:12:49.986Z,9.719291
2022-08-26T03:13:49.960Z,9.719404
2022-08-26T03:14:49.962Z,9.719343
2022-08-26T03:15:49.991Z,9.719140
2022-08-26T03:16:49.918Z,9.719108
2022-08-26T03:17:50.354Z,9.719089
2022-08-26T03:18:52.224Z,9.719061
2022-08-26T03:19:54.323Z,9.719245
2022-08-26T03:20:51.894Z,9.719242
2022-08-26T03:21:49.881Z,9.719196
2022-08-26T03:22:49.876Z,9.719104
2022-08-26T03:23:49.857Z,9.719034
2022-08-26T03:24:49.857Z,9.719170
2022-08-26T03:25:49.861Z,9.719156
2022-08-26T03:26:52.730Z,9.719271
2022-08-26T03:27:49.826Z,9.719206
2022-08-26T03:28:49.826Z,9.719275
2022-08-26T03:29:49.805Z,9.719168
2022-08-26T03:30:49.789Z,9.719322
2022-08-26T03:31:49.811Z,9.719189
2022-08-26T03:32:49.768Z,9.719213
2022-08-26T03:33:49.764Z,9.719186
2022-08-26T03:34:49.770Z,9.719195
2022-08-26T03:35:50.757Z,9.719154
2022-08-26T03:36:49.741Z,9.719132
2022-08-26T03:37:49.715Z,9.719133
2022-08-26T03:38:49.720Z,9.719178
2022-08-26T03:39:49.737Z,9.719069
2022-08-26T03:40:49.689Z,9.719196
2022-08-26T03:41:49.681Z,9.719201
2022-08-26T03:42:49.672Z,9.719140
2022-08-26T03:43:49.670Z,9.719203
2022-08-26T03:44:49.652Z,9.719198
2022-08-26T03:45:49.635Z,9.719191
2022-08-26T03:46:49.656Z,9.719111
2022-08-26T03:47:49.622Z,9.719119
2022-08-26T03:48:49.618Z,9.719130
2022-08-26T03:49:49.589Z,9.719136
2022-08-26T03:50:49.597Z,9.719212
2022-08-26T03:51:49.645Z,9.719205
2022-08-26T03:52:49.590Z,9.719248
2022-08-26T03:53:49.556Z,9.719204
2022-08-26T03:54:49.568Z,9.719196
2022-08-26T03:55:52.002Z,9.719172
2022-08-26T03:56:49.533Z,9.719226
2022-08-26T03:57:49.521Z,9.719266
2022-08-26T03:58:49.518Z,9.719206
2022-08-26T03:59:49.500Z,9.719213
2022-08-26T04:00:49.485Z,9.719185
2022-08-26T04:01:49.525Z,9.719186
2022-08-26T04:02:49.531Z,9.719131
2022-08-26T04:03:49.453Z,9.719201
2022-08-26T04:04:49.493Z,9.719236
2022-08-26T04:05:49.436Z,9.719206
2022-08-26T04:06:49.426Z,9.719326
2022-08-26T04:07:49.436Z,9.719337
2022-08-26T04:08:49.414Z,9.719352
2022-08-26T04:09:49.408Z,9.719357
2022-08-26T04:10:49.384Z,9.719419
2022-08-26T04:11:50.716Z,9.719435
2022-08-26T04:12:49.394Z,9.719449
2022-08-26T04:13:49.397Z,9.719401
2022-08-26T04:14:49.353Z,9.719420
2022-08-26T04:15:49.407Z,9.719463
2022-08-26T04:16:49.354Z,9.719446
2022-08-26T04:17:49.322Z,9.719337
2022-08-26T04:18:49.334Z,9.719357
2022-08-26T04:19:49.303Z,9.719429
2022-08-26T04:20:49.306Z,9.719410
2022-08-26T04:21:49.297Z,9.719403
2022-08-26T04:22:49.279Z,9.719399
2022-08-26T04:23:49.283Z,9.719238
2022-08-26T04:24:49.260Z,9.719204
2022-08-26T04:25:49.247Z,9.719200
2022-08-26T04:26:49.242Z,9.719197
2022-08-26T04:27:49.232Z,9.719258
2022-08-26T04:28:49.231Z,9.719152
2022-08-26T04:29:51.454Z,9.719169
2022-08-26T04:30:51.422Z,9.719221
2022-08-26T04:31:49.196Z,9.719344
2022-08-26T04:32:49.202Z,9.719494
2022-08-26T04:33:49.560Z,9.719584
2022-08-26T04:34:49.184Z,9.719528
2022-08-26T04:35:49.142Z,9.719490
2022-08-26T04:36:49.134Z,9.719531
2022-08-26T04:37:49.144Z,9.719535
2022-08-26T04:38:49.106Z,9.719507
2022-08-26T04:39:49.154Z,9.719506
2022-08-26T04:40:49.112Z,9.719451
2022-08-26T04:41:49.089Z,9.719415
2022-08-26T04:42:49.098Z,9.719594
2022-08-26T04:43:49.067Z,9.719543
2022-08-26T04:44:49.062Z,9.719641
2022-08-26T04:45:49.066Z,9.719607
2022-08-26T04:46:49.079Z,9.719633
2022-08-26T04:47:49.061Z,9.719403
2022-08-26T04:48:49.015Z,9.719049
2022-08-26T04:49:48.992Z,9.719436
2022-08-26T04:50:49.597Z,9.719203
2022-08-26T04:51:48.987Z,9.719333
2022-08-26T04:52:48.990Z,9.719110
2022-08-26T04:53:48.966Z,9.719156
2022-08-26T04:54:48.970Z,9.719156
2022-08-26T04:55:48.931Z,9.718979
2022-08-26T04:56:48.957Z,9.719062
2022-08-26T04:57:48.922Z,9.719082
2022-08-26T04:58:48.916Z,9.719033
2022-08-26T04:59:48.918Z,9.719152
2022-08-26T05:00:48.913Z,9.719073
2022-08-26T05:01:48.912Z,9.719109
2022-08-26T05:02:48.859Z,9.719001
2022-08-26T05:03:48.885Z,9.719110
2022-08-26T05:04:48.862Z,9.719070
2022-08-26T05:05:48.872Z,9.719016
2022-08-26T05:06:48.822Z,9.719068
2022-08-26T05:07:48.827Z,9.719188
2022-08-26T05:08:48.826Z,9.719270
2022-08-26T05:09:48.830Z,9.719231
2022-08-26T05:10:48.805Z,9.719255
2022-08-26T05:11:52.174Z,9.719207
2022-08-26T05:12:48.775Z,9.719105
2022-08-26T05:13:48.788Z,9.719066
2022-08-26T05:14:48.786Z,9.719112
2022-08-26T05:15:48.801Z,9.719182
2022-08-26T05:16:49.316Z,9.719149
2022-08-26T05:17:48.741Z,9.719170
2022-08-26T05:18:48.728Z,9.719147
2022-08-26T05:19:48.726Z,9.719167
2022-08-26T05:20:48.730Z,9.719071
2022-08-26T05:21:48.811Z,9.719102
2022-08-26T05:22:48.726Z,9.719037
2022-08-26T05:23:48.692Z,9.719161
2022-08-26T05:24:48.726Z,9.719094
2022-08-26T05:25:48.660Z,9.719118
2022-08-26T05:26:48.643Z,9.719181
2022-08-26T05:27:48.644Z,9.719178
2022-08-26T05:28:48.639Z,9.719101
2022-08-26T05:29:48.614Z,9.719205
2022-08-26T05:30:49.647Z,9.719149
2022-08-26T05:31:48.605Z,9.719073
2022-08-26T05:32:51.518Z,9.718946
2022-08-26T05:33:49.606Z,9.718854
2022-08-26T05:34:48.574Z,9.719075
2022-08-26T05:35:48.554Z,9.718965
2022-08-26T05:36:48.542Z,9.719110
2022-08-26T05:37:48.542Z,9.719101
2022-08-26T05:38:48.541Z,9.719116
2022-08-26T05:39:51.162Z,9.719133
2022-08-26T05:40:48.497Z,9.719183
2022-08-26T05:41:48.506Z,9.719153
2022-08-26T05:42:48.483Z,9.719104
2022-08-26T05:43:48.490Z,9.719194
2022-08-26T05:44:55.796Z,9.719483
2022-08-26T05:45:49.492Z,9.719493
2022-08-26T05:46:48.516Z,9.719486
2022-08-26T05:47:48.439Z,9.719490
2022-08-26T05:48:48.433Z,9.719481
2022-08-26T05:49:51.392Z,9.719316
2022-08-26T05:50:48.406Z,9.719352
2022-08-26T05:51:48.417Z,9.719333
2022-08-26T05:52:48.388Z,9.719416
2022-08-26T05:53:54.592Z,9.719383
2022-08-26T05:54:49.395Z,9.719438
2022-08-26T05:55:48.367Z,9.719569
2022-08-26T05:56:48.357Z,9.719483
2022-08-26T05:57:48.343Z,9.719489
2022-08-26T05:58:48.342Z,9.719338
2022-08-26T05:59:48.342Z,9.719343
2022-08-26T06:00:48.324Z,9.719417
2022-08-26T06:01:48.416Z,9.719308
2022-08-26T06:02:48.549Z,9.719304
2022-08-26T06:03:49.010Z,9.719328
2022-08-26T06:04:48.269Z,9.719397
2022-08-26T06:05:48.260Z,9.719455
2022-08-26T06:06:48.270Z,9.719376
2022-08-26T06:07:48.246Z,9.719346
2022-08-26T06:08:48.256Z,9.719280
2022-08-26T06:09:48.221Z,9.719226
2022-08-26T06:10:48.219Z,9.719200
2022-08-26T06:11:48.223Z,9.719204
2022-08-26T06:12:49.196Z,9.719296
2022-08-26T06:13:48.383Z,9.719301
2022-08-26T06:14:49.051Z,9.719252
2022-08-26T06:15:48.227Z,9.719256
2022-08-26T06:16:48.169Z,9.719219
2022-08-26T06:17:48.148Z,9.719238
2022-08-26T06:18:48.143Z,9.719310
2022-08-26T06:19:48.127Z,9.719337
2022-08-26T06:20:56.904Z,9.719325
2022-08-26T06:21:54.164Z,9.719333
2022-08-26T06:22:49.104Z,9.719277
2022-08-26T06:23:48.110Z,9.719264
2022-08-26T06:24:48.097Z,9.719282
2022-08-26T06:25:48.090Z,9.719296
2022-08-26T06:26:50.934Z,9.719343
2022-08-26T06:27:48.104Z,9.719328
2022-08-26T06:28:48.029Z,9.719354
2022-08-26T06:29:48.027Z,9.719403
2022-08-26T06:30:48.063Z,9.719413
2022-08-26T06:31:48.034Z,9.719410
2022-08-26T06:32:48.009Z,9.719372
2022-08-26T06:33:47.988Z,9.719427
2022-08-26T06:34:48.014Z,9.719326
2022-08-26T06:35:47.970Z,9.719267
2022-08-26T06:36:47.979Z,9.719307
2022-08-26T06:37:47.961Z,9.719280
2022-08-26T06:38:47.951Z,9.719288
2022-08-26T06:39:47.973Z,9.719208
2022-08-26T06:40:47.927Z,9.719194
2022-08-26T06:41:47.919Z,9.719159
2022-08-26T06:42:47.911Z,9.719210
2022-08-26T06:43:47.891Z,9.719266
2022-08-26T06:44:47.906Z,9.719414
2022-08-26T06:45:47.880Z,9.719475
2022-08-26T06:46:50.405Z,9.719114
2022-08-26T06:47:47.875Z,9.718980
2022-08-26T06:48:47.846Z,9.718932
2022-08-26T06:49:47.861Z,9.718943
2022-08-26T06:50:47.843Z,9.718988
2022-08-26T06:51:47.816Z,9.719191
2022-08-26T06:52:47.822Z,9.719614
2022-08-26T06:53:48.308Z,9.719801
2022-08-26T06:54:47.799Z,9.719619
2022-08-26T06:55:47.784Z,9.719463
2022-08-26T06:56:48.008Z,9.719144
2022-08-26T06:57:47.748Z,9.719234
2022-08-26T06:58:47.783Z,9.719190
2022-08-26T06:59:47.870Z,9.719233
2022-08-26T07:00:47.726Z,9.719406
2022-08-26T07:01:47.744Z,9.719460
2022-08-26T07:02:47.798Z,9.719432
2022-08-26T07:03:47.695Z,9.719556
2022-08-26T07:04:48.041Z,9.719410
2022-08-26T07:05:47.691Z,9.718947
2022-08-26T07:06:47.682Z,9.719133
2022-08-26T07:07:48.660Z,9.719606
2022-08-26T07:08:47.663Z,9.719767
2022-08-26T07:10:19.566Z,9.719783
2022-08-26T07:10:47.648Z,9.719571
2022-08-26T07:11:47.615Z,9.719624
2022-08-26T07:12:48.635Z,9.719467
2022-08-26T07:13:47.615Z,9.719278
2022-08-26T07:14:48.174Z,9.719346
2022-08-26T07:15:47.625Z,9.719376
2022-08-26T07:16:48.591Z,9.719842
2022-08-26T07:17:47.563Z,9.719795
2022-08-26T07:18:47.581Z,9.719579
2022-08-26T07:19:47.577Z,9.719602
2022-08-26T07:20:47.538Z,9.719625
2022-08-26T07:21:47.537Z,9.719668
2022-08-26T07:22:47.528Z,9.719359
2022-08-26T07:23:47.528Z,9.719235
2022-08-26T07:24:47.521Z,9.719253
2022-08-26T07:25:47.507Z,9.719222
2022-08-26T07:26:47.487Z,9.719211
2022-08-26T07:27:53.948Z,9.719229
2022-08-26T07:28:48.470Z,9.719244
2022-08-26T07:29:47.492Z,9.719225
2022-08-26T07:30:47.498Z,9.719262
2022-08-26T07:31:47.445Z,9.719179
2022-08-26T07:32:47.442Z,9.719135
2022-08-26T07:33:47.435Z,9.719188
2022-08-26T07:34:47.422Z,9.719104
2022-08-26T07:35:47.425Z,9.719135
2022-08-26T07:36:47.399Z,9.719116
2022-08-26T07:37:47.381Z,9.719154
2022-08-26T07:38:48.391Z,9.719116
2022-08-26T07:39:47.511Z,9.719192
2022-08-26T07:40:47.362Z,9.719250
2022-08-26T07:41:47.371Z,9.719338
2022-08-26T07:42:47.355Z,9.719250
2022-08-26T07:43:47.333Z,9.719440
2022-08-26T07:44:47.355Z,9.719065
2022-08-26T07:45:47.325Z,9.719291
2022-08-26T07:46:53.033Z,9.719458
2022-08-26T07:47:48.357Z,9.720306
2022-08-26T07:48:47.281Z,9.719328
2022-08-26T07:49:47.274Z,9.719514
2022-08-26T07:50:50.317Z,9.719277
2022-08-26T07:51:47.252Z,9.719280
2022-08-26T07:52:47.260Z,9.719265
2022-08-26T07:53:48.083Z,9.718926
2022-08-26T07:54:48.237Z,9.718830
2022-08-26T07:55:47.240Z,9.719005
2022-08-26T07:56:47.210Z,9.719098
2022-08-26T07:57:47.207Z,9.718966
2022-08-26T07:58:51.532Z,9.719119
2022-08-26T07:59:48.186Z,9.718865
2022-08-26T08:00:47.202Z,9.719147
2022-08-26T08:01:47.196Z,9.719044
2022-08-26T08:02:47.160Z,9.719038
2022-08-26T08:03:47.146Z,9.718994
2022-08-26T08:04:47.250Z,9.719117
2022-08-26T08:05:47.145Z,9.719157
2022-08-26T08:06:47.146Z,9.719012
2022-08-26T08:07:47.145Z,9.719173
2022-08-26T08:08:47.117Z,9.719113
2022-08-26T08:09:47.110Z,9.719226
2022-08-26T08:10:48.841Z,9.719124
2022-08-26T08:11:47.110Z,9.719175
2022-08-26T08:12:47.072Z,9.719186
2022-08-26T08:13:47.069Z,9.719102
2022-08-26T08:14:47.052Z,9.719188
2022-08-26T08:15:47.040Z,9.719014
2022-08-26T08:16:47.234Z,9.718960
2022-08-26T08:17:47.024Z,9.718848
2022-08-26T08:18:47.028Z,9.719221
2022-08-26T08:19:46.995Z,9.719124
2022-08-26T08:20:59.063Z,9.719167
2022-08-26T08:21:48.973Z,9.719193
2022-08-26T08:22:47.031Z,9.719047
2022-08-26T08:23:46.968Z,9.718921
2022-08-26T08:24:49.997Z,9.719025
2022-08-26T08:25:47.954Z,9.718901
2022-08-26T08:26:46.988Z,9.719123
2022-08-26T08:27:46.988Z,9.719296
2022-08-26T08:28:48.026Z,9.719361
2022-08-26T08:29:46.930Z,9.719236
2022-08-26T08:30:47.014Z,9.719202
2022-08-26T08:32:02.342Z,9.719202
2022-08-26T08:32:48.952Z,9.719113
2022-08-26T08:33:46.889Z,9.719224
2022-08-26T08:34:46.874Z,9.719131
2022-08-26T08:35:46.868Z,9.719175
2022-08-26T08:36:46.861Z,9.719086
2022-08-26T08:37:46.848Z,9.719153
2022-08-26T08:38:46.856Z,9.719235
2022-08-26T08:39:46.835Z,9.719013
2022-08-26T08:40:46.822Z,9.718856
2022-08-26T08:41:46.809Z,9.719119
2022-08-26T08:42:47.043Z,9.719264
2022-08-26T08:43:46.835Z,9.719236
2022-08-26T08:44:52.067Z,9.719134
2022-08-26T08:45:47.827Z,9.719286
2022-08-26T08:46:46.765Z,9.719273
2022-08-26T08:47:46.757Z,9.719199
2022-08-26T08:48:46.771Z,9.719334
2022-08-26T08:49:46.738Z,9.719307
2022-08-26T08:50:46.725Z,9.719231
2022-08-26T08:51:46.727Z,9.719345
2022-08-26T08:52:46.716Z,9.719288
2022-08-26T08:53:46.700Z,9.719338
2022-08-26T08:54:46.712Z,9.719252
2022-08-26T08:55:46.710Z,9.719172
2022-08-26T08:56:46.672Z,9.719263
2022-08-26T08:57:46.683Z,9.719155
2022-08-26T08:58:46.663Z,9.718991
2022-08-26T08:59:46.649Z,9.719160
2022-08-26T09:00:46.663Z,9.719112
2022-08-26T09:01:46.631Z,9.719104
2022-08-26T09:02:46.647Z,9.719012
2022-08-26T09:03:46.627Z,9.718949
2022-08-26T09:04:46.605Z,9.719053
2022-08-26T09:05:48.863Z,9.719194
2022-08-26T09:06:47.624Z,9.719212
2022-08-26T09:07:47.008Z,9.719051
2022-08-26T09:08:46.566Z,9.718988
2022-08-26T09:09:46.557Z,9.719005
2022-08-26T09:10:46.558Z,9.719103
2022-08-26T09:11:46.528Z,9.719029
2022-08-26T09:12:46.525Z,9.719031
2022-08-26T09:13:46.514Z,9.719090
2022-08-26T09:14:46.507Z,9.719028
2022-08-26T09:15:46.511Z,9.719228
2022-08-26T09:16:46.559Z,9.719090
2022-08-26T09:17:46.483Z,9.719154
2022-08-26T09:18:46.481Z,9.719095
2022-08-26T09:19:46.493Z,9.719060
2022-08-26T09:20:46.467Z,9.718852
2022-08-26T09:21:46.460Z,9.718961
2022-08-26T09:22:47.433Z,9.718949
2022-08-26T09:23:49.479Z,9.718995
2022-08-26T09:24:48.508Z,9.719033
2022-08-26T09:25:46.421Z,9.719027
2022-08-26T09:26:47.414Z,9.719171
2022-08-26T09:27:46.401Z,9.718966
2022-08-26T09:28:46.367Z,9.718876
2022-08-26T09:29:50.367Z,9.718949
2022-08-26T09:30:46.411Z,9.719118
2022-08-26T09:31:46.387Z,9.719076
2022-08-26T09:32:56.072Z,9.718968
2022-08-26T09:33:47.331Z,9.718966
2022-08-26T09:34:46.320Z,9.718984
2022-08-26T09:35:46.302Z,9.719097
2022-08-26T09:36:46.318Z,9.718916
2022-08-26T09:38:46.283Z,9.719157
2022-08-26T09:39:46.270Z,9.719088
2022-08-26T09:40:46.274Z,9.719143
2022-08-26T09:41:47.252Z,9.718938
2022-08-26T09:42:46.265Z,9.718871
2022-08-26T09:43:46.236Z,9.719111
2022-08-26T09:44:46.267Z,9.719060
2022-08-26T09:45:50.772Z,9.719115
2022-08-26T09:46:47.202Z,9.719120
2022-08-26T09:47:46.226Z,9.719012
2022-08-26T09:48:46.198Z,9.718943
2022-08-26T09:49:46.189Z,9.719027
2022-08-26T09:50:46.186Z,9.719042
2022-08-26T09:51:46.172Z,9.718888
2022-08-26T09:52:46.175Z,9.719186
2022-08-26T09:53:46.147Z,9.719078
2022-08-26T09:54:46.233Z,9.718846
2022-08-26T09:55:46.130Z,9.718958
2022-08-26T09:56:46.121Z,9.719124
2022-08-26T09:57:46.107Z,9.719242
2022-08-26T09:58:46.095Z,9.719196
2022-08-26T09:59:46.114Z,9.719041
2022-08-26T10:00:46.118Z,9.718850
2022-08-26T10:01:46.186Z,9.718882
2022-08-26T10:02:47.650Z,9.719018
2022-08-26T10:03:47.112Z,9.719176
2022-08-26T10:04:46.120Z,9.719083
2022-08-26T10:05:46.058Z,9.719044
2022-08-26T10:06:46.029Z,9.719017
2022-08-26T10:07:46.018Z,9.719050
2022-08-26T10:08:47.482Z,9.719128
2022-08-26T10:09:46.002Z,9.719089
2022-08-26T10:10:46.017Z,9.719326
2022-08-26T10:11:47.660Z,9.719422
2022-08-26T10:12:45.972Z,9.719165
2022-08-26T10:13:45.955Z,9.719353
2022-08-26T10:15:50.029Z,9.719383
2022-08-26T10:16:47.059Z,9.719243
2022-08-26T10:17:45.933Z,9.719679
2022-08-26T10:18:45.921Z,9.719845
2022-08-26T10:19:57.125Z,9.719610
2022-08-26T10:20:46.907Z,9.719828
2022-08-26T10:21:45.893Z,9.719331
2022-08-26T10:22:45.885Z,9.720168
2022-08-26T10:23:45.884Z,9.720111
2022-08-26T10:24:46.377Z,9.719680
2022-08-26T10:25:45.993Z,9.719523
2022-08-26T10:26:45.887Z,9.719754
2022-08-26T10:27:51.075Z,9.719344
2022-08-26T10:28:45.825Z,9.719656
2022-08-26T10:29:45.837Z,9.720057
2022-08-26T10:30:45.813Z,9.719355
2022-08-26T10:31:45.830Z,9.720027
2022-08-26T10:32:45.787Z,9.720132
2022-08-26T10:33:45.787Z,9.719689
2022-08-26T10:34:45.791Z,9.719494
2022-08-26T10:35:45.773Z,9.719151
2022-08-26T10:37:10.580Z,9.719703
2022-08-26T10:37:47.760Z,9.718948
2022-08-26T10:38:45.732Z,9.718984
2022-08-26T10:39:46.046Z,9.719095
2022-08-26T10:40:45.823Z,9.719224
2022-08-26T10:41:45.708Z,9.719061
2022-08-26T10:42:45.701Z,9.719110
2022-08-26T10:43:45.691Z,9.718912
2022-08-26T10:44:45.685Z,9.719178
2022-08-26T10:45:45.732Z,9.719549
2022-08-26T10:46:45.662Z,9.719228
2022-08-26T10:47:45.645Z,9.718929
2022-08-26T10:48:45.644Z,9.718879
2022-08-26T10:49:45.628Z,9.718816
2022-08-26T10:50:47.480Z,9.718968
2022-08-26T10:51:46.634Z,9.719163
2022-08-26T10:52:45.596Z,9.719386
2022-08-26T10:53:45.623Z,9.718960
2022-08-26T10:54:45.579Z,9.718982
2022-08-26T10:55:45.573Z,9.719170
2022-08-26T10:56:45.560Z,9.719192
2022-08-26T10:57:45.578Z,9.719103
2022-08-26T10:58:45.657Z,9.719168
2022-08-26T10:59:45.538Z,9.719111
2022-08-26T11:00:45.567Z,9.719161
2022-08-26T11:01:47.014Z,9.719269
2022-08-26T11:02:47.090Z,9.719217
2022-08-26T11:03:45.548Z,9.719224
2022-08-26T11:04:48.325Z,9.719262
2022-08-26T11:05:45.479Z,9.719301
2022-08-26T11:06:45.459Z,9.719486
2022-08-26T11:07:45.456Z,9.719108
2022-08-26T11:08:45.477Z,9.719224
2022-08-26T11:09:45.438Z,9.719291
2022-08-26T11:10:45.428Z,9.719138
2022-08-26T11:11:45.426Z,9.718946
2022-08-26T11:12:45.420Z,9.719432
2022-08-26T11:13:45.402Z,9.719024
2022-08-26T11:14:53.234Z,9.719137
2022-08-26T11:15:46.388Z,9.719232
2022-08-26T11:16:45.484Z,9.719000
2022-08-26T11:17:45.379Z,9.719387
2022-08-26T11:18:45.358Z,9.719305
2022-08-26T11:20:00.271Z,9.719281
2022-08-26T11:20:47.411Z,9.719348
2022-08-26T11:21:45.337Z,9.719342
2022-08-26T11:22:47.794Z,9.719330
2022-08-26T11:23:45.323Z,9.719242
2022-08-26T11:24:46.301Z,9.718840
2022-08-26T11:25:45.315Z,9.718709
2022-08-26T11:26:56.330Z,9.718982
2022-08-26T11:27:46.303Z,9.719261
2022-08-26T11:28:45.264Z,9.719250
2022-08-26T11:29:45.260Z,9.719234
2022-08-26T11:30:45.246Z,9.718915
2022-08-26T11:31:45.286Z,9.719127
2022-08-26T11:32:45.256Z,9.719230
2022-08-26T11:33:45.223Z,9.719072
2022-08-26T11:34:45.206Z,9.719148
2022-08-26T11:35:45.202Z,9.719308
2022-08-26T11:36:45.191Z,9.719340
2022-08-26T11:37:45.181Z,9.719247
2022-08-26T11:38:45.186Z,9.719321
2022-08-26T11:39:47.259Z,9.719347
2022-08-26T11:40:47.182Z,9.719379
2022-08-26T11:41:45.147Z,9.719354
2022-08-26T11:42:45.134Z,9.719328
2022-08-26T11:43:45.136Z,9.719301
2022-08-26T11:44:49.060Z,9.719362
2022-08-26T11:45:45.156Z,9.719289
2022-08-26T11:46:45.098Z,9.719221